Time;durP1;ratioP1;P1;durP2;ratioP2;P2;SDS_P1;SDS_P2;PMS_P1;PMS_P2;Temp;Humidity;BMP_temperature;BMP_pressure;BME280_temperature;BME280_humidity;BME280_pressure;Samples;Min_cycle;Max_cycle;Signal;HPM_P1;HPM_P2
2022/09/01 00:01:26;;;;;;;149.10;63.80;;;;;;;12.01;99.31;98648.34;5083826;28;20083;-67
2022/09/01 00:03:54;;;;;;;134.38;59.53;;;;;;;12.10;99.48;98656.06;5084144;28;20023;-67
2022/09/01 00:06:23;;;;;;;142.48;58.25;;;;;;;12.11;98.71;98651.63;5084054;28;20209;-67
2022/09/01 00:08:50;;;;;;;142.40;59.50;;;;;;;12.11;98.98;98649.84;5083724;28;20025;-67
2022/09/01 00:11:15;;;;;;;124.75;52.42;;;;;;;12.06;98.22;98651.72;5083745;28;20021;-67
2022/09/01 00:13:41;;;;;;;104.38;48.20;;;;;;;11.91;97.69;98646.84;5083675;28;20031;-67
2022/09/01 00:16:08;;;;;;;124.93;54.47;;;;;;;11.95;98.56;98653.78;5083722;28;20032;-67
2022/09/01 00:18:34;;;;;;;134.73;60.58;;;;;;;12.01;98.86;98643.09;5083667;28;20043;-67
2022/09/01 00:21:00;;;;;;;133.73;59.47;;;;;;;12.02;99.51;98649.25;5083715;28;20048;-67
2022/09/01 00:23:26;;;;;;;141.23;65.45;;;;;;;12.01;99.66;98651.00;5083679;28;20063;-67
2022/09/01 00:25:52;;;;;;;145.52;63.42;;;;;;;12.00;99.77;98645.75;5083760;28;20028;-67
2022/09/01 00:28:18;;;;;;;156.32;70.88;;;;;;;12.00;100.00;98651.91;5083532;28;20044;-67
2022/09/01 00:30:43;;;;;;;176.65;70.78;;;;;;;11.98;100.00;98651.06;5083572;28;20039;-67
2022/09/01 00:33:09;;;;;;;155.52;64.35;;;;;;;11.89;100.00;98651.28;5083495;28;20024;-67
2022/09/01 00:35:34;;;;;;;129.68;59.50;;;;;;;11.85;100.00;98652.28;5083481;28;20027;-67
2022/09/01 00:38:00;;;;;;;158.23;62.70;;;;;;;11.86;100.00;98645.22;5083638;28;20047;-67
2022/09/01 00:40:25;;;;;;;98.00;46.85;;;;;;;11.78;99.51;98648.06;5083398;28;20024;-67
2022/09/01 00:42:52;;;;;;;101.47;46.17;;;;;;;11.63;99.48;98645.78;5083483;28;20025;-67
2022/09/01 00:45:20;;;;;;;126.28;55.15;;;;;;;11.60;100.00;98645.81;5083384;28;20058;-67
2022/09/01 00:47:46;;;;;;;120.70;54.35;;;;;;;11.49;100.00;98642.56;5083381;28;20048;-67
2022/09/01 00:50:13;;;;;;;130.52;58.63;;;;;;;11.52;100.00;98645.09;5083333;28;20028;-67
2022/09/01 00:52:44;;;;;;;134.65;57.95;;;;;;;11.50;100.00;98644.28;5083283;28;20324;-67
2022/09/01 00:55:20;;;;;;;134.85;58.70;;;;;;;11.52;100.00;98637.19;5083368;28;20032;-67
2022/09/01 00:57:46;;;;;;;118.90;56.53;;;;;;;11.60;100.00;98640.53;5083632;28;20046;-67
2022/09/01 01:00:22;;;;;;;133.43;56.58;;;;;;;11.57;100.00;98640.59;5083214;28;20069;-67
2022/09/01 01:02:54;;;;;;;114.75;51.35;;;;;;;11.44;100.00;98628.63;5086197;28;20016;-67
2022/09/01 01:05:20;;;;;;;;;;;;;;;11.53;100.00;98638.06;5087553;28;20028;-67
2022/09/01 01:07:46;;;;;;;116.18;55.63;;;;;;;11.57;100.00;98632.69;5087108;28;20065;-67
2022/09/01 01:10:14;;;;;;;119.10;54.22;;;;;;;11.57;100.00;98639.72;5086708;28;20090;-67
2022/09/01 01:12:42;;;;;;;93.65;43.03;;;;;;;11.41;100.00;98639.22;5086879;28;20251;-67
2022/09/01 01:15:10;;;;;;;114.63;51.03;;;;;;;11.45;100.00;98646.16;5086897;28;20020;-67
2022/09/01 01:17:35;;;;;;;116.30;51.58;;;;;;;11.45;100.00;98640.88;5086881;28;20357;-67
2022/09/01 01:23:04;;;;;;;116.05;51.45;;;;;;;11.38;100.00;98635.78;5086515;28;20027;-67
2022/09/01 01:25:37;;;;;;;114.50;51.25;;;;;;;11.41;100.00;98644.50;5086496;28;20029;-67
2022/09/01 01:28:19;;;;;;;113.25;53.22;;;;;;;11.38;100.00;98641.06;5086754;28;20312;-67
2022/09/01 01:30:53;;;;;;;121.45;53.65;;;;;;;11.37;100.00;98642.84;5086454;28;20028;-67
2022/09/01 01:33:26;;;;;;;107.47;50.78;;;;;;;11.33;100.00;98643.78;5086362;28;20039;-67
2022/09/01 01:35:55;;;;;;;106.20;45.80;;;;;;;11.26;100.00;98642.19;5086430;28;20020;-67
2022/09/01 01:38:21;;;;;;;103.22;45.83;;;;;;;11.32;100.00;98644.69;5086196;28;20092;-67
2022/09/01 01:40:47;;;;;;;92.20;44.65;;;;;;;11.27;100.00;98641.31;5086310;28;20024;-67
2022/09/01 01:43:20;;;;;;;98.35;47.75;;;;;;;11.27;100.00;98640.44;5086167;28;20373;-67
2022/09/01 01:45:52;;;;;;;96.15;43.90;;;;;;;11.12;100.00;98641.63;5086403;28;20020;-67
2022/09/01 01:48:23;;;;;;;59.95;30.95;;;;;;;10.99;99.97;98645.44;5086380;28;20211;-67
2022/09/01 01:50:50;;;;;;;103.80;46.35;;;;;;;10.99;100.00;98642.81;5086095;28;20141;-67
2022/09/01 01:53:18;;;;;;;93.55;42.60;;;;;;;10.99;100.00;98655.97;5085864;28;20020;-67
2022/09/01 01:55:44;;;;;;;102.65;46.95;;;;;;;11.01;100.00;98655.94;5085951;28;20342;-67
2022/09/01 01:58:10;;;;;;;93.57;45.63;;;;;;;11.03;100.00;98652.38;5085913;28;20024;-67
2022/09/01 02:00:37;;;;;;;73.70;35.45;;;;;;;10.93;100.00;98648.19;5085811;28;20032;-67
2022/09/01 02:03:04;;;;;;;75.45;35.65;;;;;;;10.90;100.00;98646.50;5085813;28;20023;-67
2022/09/01 02:05:34;;;;;;;78.95;38.40;;;;;;;10.95;100.00;98643.78;5086012;28;20252;-67
2022/09/01 02:08:03;;;;;;;80.03;37.72;;;;;;;10.94;100.00;98647.28;5085684;28;20024;-67
2022/09/01 02:10:32;;;;;;;80.03;37.80;;;;;;;11.05;100.00;98650.56;5085556;28;20044;-67
2022/09/01 02:13:03;;;;;;;81.35;39.28;;;;;;;11.00;100.00;98641.88;5084449;28;20024;-67
2022/09/01 02:15:42;;;;;;;78.65;39.38;;;;;;;10.93;100.00;98645.56;5085553;28;20028;-67
2022/09/01 02:18:07;;;;;;;65.63;33.83;;;;;;;10.75;100.00;98643.28;5085707;28;20300;-67
2022/09/01 02:20:32;;;;;;;70.20;35.53;;;;;;;10.81;100.00;98640.53;5085425;28;20044;-67
2022/09/01 02:23:08;;;;;;;77.03;37.22;;;;;;;10.83;100.00;98641.38;5085433;28;20365;-67
2022/09/01 02:25:34;;;;;;;64.07;30.63;;;;;;;10.69;100.00;98646.03;5085381;28;20031;-67
2022/09/01 02:28:01;;;;;;;67.93;34.50;;;;;;;10.75;100.00;98641.53;5085563;28;20212;-67
2022/09/01 02:30:27;;;;;;;60.90;29.73;;;;;;;10.67;100.00;98647.84;5085484;28;20020;-67
2022/09/01 02:32:52;;;;;;;65.85;32.60;;;;;;;10.72;100.00;98651.25;5085320;28;20051;-67
2022/09/01 02:35:18;;;;;;;68.70;32.90;;;;;;;10.68;100.00;98639.03;5085145;28;20025;-67
2022/09/01 02:37:48;;;;;;;69.43;32.60;;;;;;;10.62;100.00;98637.41;5085048;28;20219;-67
2022/09/01 02:40:14;;;;;;;66.25;32.22;;;;;;;10.68;100.00;98636.41;5085298;28;20288;-67
2022/09/01 02:42:42;;;;;;;65.28;31.90;;;;;;;10.71;100.00;98634.59;5084968;28;20031;-67
2022/09/01 02:45:10;;;;;;;65.40;34.17;;;;;;;10.69;100.00;98639.00;5085196;28;20312;-67
2022/09/01 02:47:39;;;;;;;65.55;34.85;;;;;;;10.74;100.00;98644.19;5085117;28;20338;-67
2022/09/01 02:50:05;;;;;;;63.42;34.30;;;;;;;10.74;100.00;98644.19;5085291;28;20208;-67
2022/09/01 02:52:36;;;;;;;67.72;34.33;;;;;;;10.74;100.00;98642.44;5084728;28;20040;-67
2022/09/01 02:55:02;;;;;;;52.70;24.92;;;;;;;10.62;100.00;98647.06;5084710;28;20024;-67
2022/09/01 02:57:28;;;;;;;64.93;31.38;;;;;;;10.59;100.00;98647.13;5084684;28;20091;-67
2022/09/01 02:59:57;;;;;;;60.65;28.35;;;;;;;10.50;100.00;98649.91;5084811;28;20047;-67
2022/09/01 03:02:25;;;;;;;52.75;23.60;;;;;;;10.38;100.00;98645.75;5084567;28;20051;-67
2022/09/01 03:04:53;;;;;;;52.38;27.13;;;;;;;10.48;100.00;98642.03;5084551;28;20024;-67
2022/09/01 03:07:20;;;;;;;46.85;26.08;;;;;;;10.51;100.00;98646.41;5084517;28;20054;-67
2022/09/01 03:09:45;;;;;;;53.47;25.55;;;;;;;10.45;100.00;98641.25;5084276;28;20115;-67
2022/09/01 03:12:11;;;;;;;65.28;30.50;;;;;;;10.48;100.00;98636.78;5084340;28;20324;-67
2022/09/01 03:14:36;;;;;;;58.88;30.63;;;;;;;10.47;100.00;98639.44;5084371;28;20025;-67
2022/09/01 03:17:02;;;;;;;55.35;27.25;;;;;;;10.42;100.00;98641.31;5084436;28;20024;-67
2022/09/01 03:19:31;;;;;;;41.97;23.90;;;;;;;10.34;100.00;98630.03;5084423;28;20058;-67
2022/09/01 03:21:58;;;;;;;50.75;26.20;;;;;;;10.28;100.00;98640.69;5084399;28;20346;-67
2022/09/01 03:24:24;;;;;;;53.05;26.95;;;;;;;10.31;100.00;98643.25;5084210;28;20024;-67
2022/09/01 03:26:50;;;;;;;46.53;26.52;;;;;;;10.19;100.00;98638.25;5084493;28;20247;-67
2022/09/01 03:29:16;;;;;;;50.25;27.30;;;;;;;10.15;100.00;98639.16;5084232;28;20028;-67
2022/09/01 03:31:41;;;;;;;53.67;27.83;;;;;;;10.17;100.00;98640.91;5084192;28;20024;-67
2022/09/01 03:34:09;;;;;;;45.67;23.15;;;;;;;10.15;100.00;98636.53;5084083;28;20028;-67
2022/09/01 03:36:35;;;;;;;46.55;24.70;;;;;;;10.20;100.00;98634.69;5084203;28;20062;-67
2022/09/01 03:39:00;;;;;;;43.33;21.50;;;;;;;10.03;100.00;98644.63;5084063;28;20087;-67
2022/09/01 03:41:29;;;;;;;38.88;21.88;;;;;;;10.05;100.00;98645.44;5084330;28;20031;-67
2022/09/01 03:43:56;;;;;;;34.75;19.92;;;;;;;10.09;100.00;98637.50;5084104;28;20202;-67
2022/09/01 03:46:23;;;;;;;41.75;23.20;;;;;;;10.08;100.00;98640.16;5084061;28;20028;-67
2022/09/01 03:48:53;;;;;;;38.92;21.77;;;;;;;10.04;100.00;98641.09;5084260;28;20016;-67
2022/09/01 03:51:21;;;;;;;38.25;21.50;;;;;;;10.04;100.00;98643.72;5084038;28;20016;-67
2022/09/01 03:53:47;;;;;;;51.28;23.95;;;;;;;10.08;100.00;98634.91;5083839;28;20333;-67
2022/09/01 03:56:14;;;;;;;47.40;23.05;;;;;;;10.06;100.00;98637.56;5083934;28;20223;-67
2022/09/01 03:58:43;;;;;;;35.22;20.08;;;;;;;10.04;100.00;98633.22;5083884;28;20023;-67
2022/09/01 04:01:11;;;;;;;36.80;19.52;;;;;;;10.00;100.00;98636.78;5084050;28;20243;-67
2022/09/01 04:03:39;;;;;;;41.38;20.55;;;;;;;10.05;100.00;98635.81;5083816;28;20051;-67
2022/09/01 04:06:08;;;;;;;29.73;17.52;;;;;;;9.95;100.00;98633.34;5083855;28;20047;-67
2022/09/01 04:08:34;;;;;;;31.15;17.85;;;;;;;9.83;100.00;98628.28;5083763;28;20021;-67
2022/09/01 04:11:17;;;;;;;39.55;19.73;;;;;;;9.87;100.00;98641.38;5083695;28;20048;-67
2022/09/01 04:13:42;;;;;;;27.92;16.58;;;;;;;9.78;100.00;98635.41;5083643;28;20029;-67
2022/09/01 04:18:08;;;;;;;28.20;15.55;;;;;;;9.79;100.00;98639.75;5083682;28;20055;-67
2022/09/01 04:19:14;;;;;;;30.35;17.40;;;;;;;9.86;100.00;98638.75;5083639;28;20193;-67
2022/09/01 04:21:41;;;;;;;36.45;19.42;;;;;;;9.83;100.00;98633.56;5083695;28;20021;-67
2022/09/01 04:24:08;;;;;;;33.88;19.27;;;;;;;9.89;100.00;98630.81;5083591;28;20020;-67
2022/09/01 04:26:33;;;;;;;35.28;19.73;;;;;;;9.96;100.00;98635.09;5083630;28;20020;-67
2022/09/01 04:28:59;;;;;;;41.70;19.02;;;;;;;9.93;100.00;98629.88;5081977;28;20026;-67
2022/09/01 04:31:25;;;;;;;31.88;16.27;;;;;;;9.76;100.00;98631.91;5082908;28;20016;-67
2022/09/01 04:33:51;;;;;;;41.85;18.00;;;;;;;9.82;100.00;98627.44;5082544;28;20063;-67
2022/09/01 04:36:24;;;;;;;30.27;17.90;;;;;;;9.71;100.00;98624.09;5083135;28;20020;-67
2022/09/01 04:38:53;;;;;;;32.70;18.38;;;;;;;9.72;100.00;98625.00;5086962;28;20100;-67
2022/09/01 04:41:20;;;;;;;30.52;15.82;;;;;;;9.66;100.00;98630.34;5087214;28;20201;-67
2022/09/01 04:43:48;;;;;;;32.50;17.60;;;;;;;9.66;100.00;98630.34;5087280;28;20098;-67
2022/09/01 04:46:15;;;;;;;36.05;18.08;;;;;;;9.71;100.00;98625.91;5087252;28;20059;-67
2022/09/01 04:48:43;;;;;;;38.33;17.83;;;;;;;9.68;100.00;98623.31;5087467;28;20386;-67
2022/09/01 04:51:11;;;;;;;32.22;17.73;;;;;;;9.73;100.00;98626.72;5087068;28;20024;-67
2022/09/01 04:53:37;;;;;;;44.53;20.73;;;;;;;9.65;100.00;98623.34;5087286;28;20017;-67
2022/09/01 04:56:08;;;;;;;37.08;19.77;;;;;;;9.70;100.00;98626.75;5086966;28;20024;-67
2022/09/01 04:58:35;;;;;;;34.53;20.85;;;;;;;9.80;100.00;98625.72;5087271;28;20024;-67
2022/09/01 05:01:12;;;;;;;35.80;19.45;;;;;;;9.89;100.00;98629.06;5086941;28;20360;-67
2022/09/01 05:03:37;;;;;;;34.40;19.30;;;;;;;9.96;100.00;98627.19;5087176;28;20016;-67
2022/09/01 05:06:03;;;;;;;36.35;19.95;;;;;;;10.02;100.00;98624.47;5086875;28;20220;-67
2022/09/01 05:08:31;;;;;;;31.63;17.60;;;;;;;9.93;100.00;98629.88;5086826;28;20025;-67
2022/09/01 05:10:56;;;;;;;30.15;16.83;;;;;;;9.96;100.00;98619.31;5086678;28;20044;-67
2022/09/01 05:13:23;;;;;;;30.13;18.08;;;;;;;9.98;100.00;98628.03;5086736;28;20036;-67
2022/09/01 05:16:01;;;;;;;32.85;17.98;;;;;;;10.02;100.00;98629.72;5086694;28;20030;-67
2022/09/01 05:18:27;;;;;;;34.63;18.52;;;;;;;10.11;100.00;98629.59;5086724;28;20241;-67
2022/09/01 05:20:53;;;;;;;38.70;20.23;;;;;;;10.14;100.00;98629.56;5086640;28;20024;-67
2022/09/01 05:23:20;;;;;;;28.98;18.08;;;;;;;10.14;100.00;98629.56;5086574;28;20039;-67
2022/09/01 05:25:48;;;;;;;34.10;18.45;;;;;;;10.27;100.00;98625.81;5086532;28;20047;-67
2022/09/01 05:28:17;;;;;;;36.35;17.98;;;;;;;10.37;100.00;98627.34;5086519;28;20092;-67
2022/09/01 05:30:44;;;;;;;30.02;16.67;;;;;;;10.89;100.00;98628.09;5086456;28;20104;-67
2022/09/01 05:33:11;;;;;;;30.77;16.42;;;;;;;11.58;98.12;98633.59;5086305;28;20024;-67
2022/09/01 05:35:43;;;;;;;26.75;15.32;;;;;;;12.16;94.90;98628.63;5086603;28;20246;-67
2022/09/01 05:38:12;;;;;;;31.92;15.98;;;;;;;12.62;91.97;98621.22;5086307;28;20354;-67
2022/09/01 05:40:42;;;;;;;27.55;15.45;;;;;;;13.10;88.90;98624.28;5086526;28;20111;-67
2022/09/01 05:43:12;;;;;;;28.35;15.80;;;;;;;13.50;86.42;98630.06;5086505;28;20203;-67
2022/09/01 05:45:44;;;;;;;25.13;14.32;;;;;;;13.88;84.97;98629.72;5086173;28;20362;-67
2022/09/01 05:48:11;;;;;;;27.27;13.80;;;;;;;14.19;83.22;98615.44;5085990;28;20074;-67
2022/09/01 05:50:41;;;;;;;30.98;15.48;;;;;;;14.21;80.59;98623.34;5086087;28;20028;-67
2022/09/01 05:53:09;;;;;;;29.10;15.70;;;;;;;14.60;78.98;98619.31;5085922;28;20020;-67
2022/09/01 05:55:36;;;;;;;23.95;14.02;;;;;;;15.20;77.69;98627.69;5086003;28;20024;-67
2022/09/01 05:58:03;;;;;;;28.60;13.70;;;;;;;15.75;75.61;98632.59;5085963;28;20021;-67
2022/09/01 06:00:33;;;;;;;27.92;15.68;;;;;;;16.01;74.47;98628.91;5086043;28;20020;-67
2022/09/01 06:02:59;;;;;;;27.10;15.40;;;;;;;16.50;72.67;98624.16;5085869;28;20327;-67
2022/09/01 06:05:25;;;;;;;26.17;15.70;;;;;;;16.90;71.62;98625.94;5085778;28;20053;-67
2022/09/01 06:07:51;;;;;;;28.40;16.08;;;;;;;17.58;70.47;98622.78;5085683;28;20021;-67
2022/09/01 06:10:16;;;;;;;31.85;17.00;;;;;;;18.10;67.88;98629.97;5085554;28;20045;-67
2022/09/01 06:12:44;;;;;;;29.35;16.23;;;;;;;18.63;67.07;98629.03;5085552;28;20243;-67
2022/09/01 06:15:14;;;;;;;26.92;14.93;;;;;;;18.77;66.02;98631.81;5085596;28;20087;-67
2022/09/01 06:17:40;;;;;;;33.45;15.95;;;;;;;18.70;66.67;98640.25;5085589;28;20024;-67
2022/09/01 06:20:09;;;;;;;33.55;16.75;;;;;;;18.88;65.21;98639.25;5085490;28;20185;-67
2022/09/01 06:22:35;;;;;;;28.25;15.88;;;;;;;19.21;64.94;98634.84;5085395;28;20058;-67
2022/09/01 06:25:00;;;;;;;25.65;14.75;;;;;;;19.57;65.71;98635.50;5085631;28;20069;-67
2022/09/01 06:27:26;;;;;;;33.28;15.75;;;;;;;20.03;64.49;98639.97;5085300;28;20044;-67
2022/09/01 06:29:54;;;;;;;27.88;15.73;;;;;;;20.65;64.12;98647.91;5085312;28;20020;-67
2022/09/01 06:32:19;;;;;;;18.13;9.43;;;;;;;21.01;64.46;98659.13;5085101;28;20059;-67
2022/09/01 06:34:48;;;;;;;29.55;15.88;;;;;;;21.23;61.97;98637.25;5085166;28;20032;-67
2022/09/01 06:37:14;;;;;;;28.35;14.90;;;;;;;21.61;62.14;98648.25;5085098;28;20025;-67
2022/09/01 06:39:40;;;;;;;18.00;10.23;;;;;;;22.25;61.18;98656.56;5085335;28;20031;-67
2022/09/01 06:42:05;;;;;;;29.30;13.50;;;;;;;22.82;58.35;98652.69;5085257;28;20239;-67
2022/09/01 06:44:31;;;;;;;19.77;9.73;;;;;;;22.78;59.49;98645.81;5085003;28;20325;-67
2022/09/01 06:46:58;;;;;;;17.98;9.13;;;;;;;23.25;57.79;98640.72;5085212;28;20016;-67
2022/09/01 06:49:31;;;;;;;10.93;7.18;;;;;;;23.92;56.76;98653.72;5084870;28;20024;-67
2022/09/01 06:51:58;;;;;;;15.05;8.18;;;;;;;24.23;55.45;98652.41;5084814;28;20020;-67
2022/09/01 06:54:24;;;;;;;13.07;7.95;;;;;;;24.00;56.09;98654.06;5084811;28;20065;-67
2022/09/01 06:56:49;;;;;;;13.68;7.82;;;;;;;23.93;56.03;98650.09;5084702;28;20091;-67
2022/09/01 06:59:15;;;;;;;13.00;7.40;;;;;;;24.48;55.85;98646.88;5084044;28;20035;-68
2022/09/01 07:01:40;;;;;;;18.70;8.13;;;;;;;24.52;54.68;98638.47;5084708;28;20109;-68
2022/09/01 07:04:06;;;;;;;13.93;7.43;;;;;;;24.72;53.64;98650.44;5084636;28;20024;-68
2022/09/01 07:06:31;;;;;;;13.32;7.43;;;;;;;24.65;54.58;98654.59;5084865;28;20112;-68
2022/09/01 07:09:00;;;;;;;12.73;7.13;;;;;;;25.52;52.93;98652.25;5084382;28;20031;-68
2022/09/01 07:11:31;;;;;;;15.10;7.75;;;;;;;25.40;53.09;98653.22;5084471;28;20065;-68
2022/09/01 07:14:00;;;;;;;;;;;;;;;25.83;52.59;98656.91;5084811;28;20028;-66
2022/09/01 07:16:28;;;;;;;13.18;7.65;;;;;;;25.49;52.37;98655.16;5084676;28;20199;-68
2022/09/01 07:18:57;;;;;;;12.95;8.15;;;;;;;25.62;52.61;98653.25;5084464;28;20027;-68
2022/09/01 07:21:23;;;;;;;11.88;7.45;;;;;;;25.64;52.45;98656.66;5084649;28;20062;-68
2022/09/01 07:23:50;;;;;;;12.80;7.88;;;;;;;26.13;52.17;98668.78;5084405;28;20099;-68
2022/09/01 07:26:24;;;;;;;14.95;7.90;;;;;;;25.57;51.85;98650.91;5084554;28;20254;-68
2022/09/01 07:28:51;;;;;;;12.43;7.97;;;;;;;26.05;51.57;98656.91;5084499;28;20185;-68
2022/09/01 07:31:30;;;;;;;16.38;7.68;;;;;;;26.37;51.64;98663.22;5084472;28;20058;-68
2022/09/01 07:34:00;;;;;;;10.38;7.40;;;;;;;26.09;51.55;98655.66;5084081;28;20024;-68
2022/09/01 07:36:26;;;;;;;13.65;7.88;;;;;;;26.11;51.74;98651.03;5084177;28;20173;-68
2022/09/01 07:38:52;;;;;;;13.45;9.07;;;;;;;26.90;50.31;98656.91;5084105;28;20335;-68
2022/09/01 07:41:23;;;;;;;13.55;8.25;;;;;;;26.57;50.95;98670.50;5084062;28;20022;-68
2022/09/01 07:43:54;;;;;;;17.80;8.57;;;;;;;26.36;52.31;98662.38;5084116;28;20087;-68
2022/09/01 07:46:21;;;;;;;18.15;8.95;;;;;;;26.59;51.24;98663.16;5084136;28;20048;-68
2022/09/01 07:48:48;;;;;;;14.25;8.18;;;;;;;26.83;50.40;98666.53;5084004;28;20021;-68
2022/09/01 07:51:18;;;;;;;14.68;8.50;;;;;;;26.16;51.54;98665.00;5083924;28;20021;-68
2022/09/01 07:53:47;;;;;;;16.98;8.30;;;;;;;26.56;50.75;98661.56;5083923;28;20024;-68
2022/09/01 07:56:14;;;;;;;13.60;7.78;;;;;;;26.48;51.05;98653.25;5084215;28;20020;-68
2022/09/01 07:58:40;;;;;;;13.93;7.93;;;;;;;26.64;50.97;98651.00;5083890;28;20020;-68
2022/09/01 08:01:12;;;;;;;18.08;7.85;;;;;;;26.67;50.75;98661.56;5083858;28;20039;-68
2022/09/01 08:03:38;;;;;;;13.60;8.50;;;;;;;26.23;51.19;98650.03;5083885;28;20039;-68
2022/09/01 08:06:07;;;;;;;16.23;7.95;;;;;;;26.54;50.65;98657.31;5083859;28;20278;-68
2022/09/01 08:08:33;;;;;;;12.05;7.38;;;;;;;26.49;51.36;98656.81;5083846;28;20024;-68
2022/09/01 08:10:59;;;;;;;14.13;7.47;;;;;;;26.62;50.17;98653.00;5083814;28;20040;-68
2022/09/01 08:13:25;;;;;;;13.88;7.13;;;;;;;27.28;49.46;98657.22;5087875;28;20259;-68
2022/09/01 08:15:51;;;;;;;12.13;6.85;;;;;;;26.99;50.26;98648.03;5087932;28;20043;-68
2022/09/01 08:18:16;;;;;;;10.93;7.05;;;;;;;26.53;50.52;98652.88;5087780;28;20025;-68
2022/09/01 08:20:46;;;;;;;10.25;6.45;;;;;;;27.74;48.75;98651.38;5087824;28;20074;-68
2022/09/01 08:23:14;;;;;;;14.05;7.18;;;;;;;27.70;47.55;98658.88;5088063;28;20051;-68
2022/09/01 08:25:43;;;;;;;12.65;7.38;;;;;;;26.96;49.28;98651.84;5087679;28;20123;-68
2022/09/01 08:28:09;;;;;;;9.55;6.93;;;;;;;26.91;49.63;98654.09;5087663;28;20031;-68
2022/09/01 08:30:38;;;;;;;9.68;6.40;;;;;;;27.56;49.14;98655.69;5087573;28;20020;-68
2022/09/01 08:33:04;;;;;;;12.35;6.38;;;;;;;28.25;47.28;98661.09;5087517;28;20025;-68
2022/09/01 08:35:29;;;;;;;10.68;6.35;;;;;;;27.59;47.69;98658.13;5087554;28;20032;-68
2022/09/01 08:37:55;;;;;;;10.55;7.40;;;;;;;27.13;48.08;98655.81;5087489;28;20212;-68
2022/09/01 08:40:22;;;;;;;11.45;6.82;;;;;;;26.86;49.20;98660.88;5087357;28;20028;-68
2022/09/01 08:43:24;;;;;;;9.52;6.38;;;;;;;27.15;48.56;98670.06;5087460;28;20193;-68
2022/09/01 08:45:54;;;;;;;13.60;7.05;;;;;;;25.96;50.91;98663.03;5059481;28;20081;-68
2022/09/01 08:48:27;;;;;;;12.18;6.72;;;;;;;26.23;50.93;98668.91;5087359;28;20016;-68
2022/09/01 08:51:02;;;;;;;8.48;6.22;;;;;;;26.93;49.53;98672.88;5087272;28;20115;-68
2022/09/01 08:53:34;;;;;;;13.30;6.45;;;;;;;26.47;49.16;98669.56;5087186;28;20020;-68
2022/09/01 08:56:00;;;;;;;11.50;6.50;;;;;;;26.61;49.88;98672.00;5087152;28;20341;-68
2022/09/01 08:58:29;;;;;;;12.10;6.50;;;;;;;26.15;49.98;98661.44;5087027;28;20047;-68
2022/09/01 09:01:00;;;;;;;11.23;7.32;;;;;;;26.33;49.20;98672.56;5086900;28;20032;-68
2022/09/01 09:03:57;;;;;;;10.48;6.60;;;;;;;26.63;49.10;98672.75;5087214;28;20357;-68
2022/09/01 09:06:42;;;;;;;10.50;7.05;;;;;;;26.15;49.69;98668.66;5056222;28;20098;-68
2022/09/01 09:09:08;;;;;;;9.50;6.47;;;;;;;26.92;48.18;98676.53;5086911;28;20044;-68
2022/09/01 09:11:54;;;;;;;12.60;6.78;;;;;;;26.39;49.45;98678.28;5086856;28;20031;-68
2022/09/01 09:14:40;;;;;;;11.32;7.20;;;;;;;26.74;48.61;98672.72;5086724;28;20338;-68
2022/09/01 09:17:06;;;;;;;13.05;6.57;;;;;;;25.24;51.55;98670.56;5086672;28;20024;-68
2022/09/01 09:19:39;;;;;;;9.32;6.50;;;;;;;25.81;51.18;98683.16;5086742;28;20020;-68
2022/09/01 09:22:11;;;;;;;17.05;6.35;;;;;;;26.15;50.47;98682.16;5086096;28;20031;-68
2022/09/01 09:24:49;;;;;;;11.23;6.93;;;;;;;26.40;50.03;98676.47;5086516;28;20024;-68
2022/09/01 09:27:23;;;;;;;11.23;6.15;;;;;;;27.21;48.30;98667.66;5086561;28;20044;-68
2022/09/01 09:29:55;;;;;;;10.93;5.88;;;;;;;26.06;50.77;98659.50;5086530;28;20319;-68
2022/09/01 09:32:22;;;;;;;9.75;6.05;;;;;;;27.13;48.39;98669.31;5086445;28;20403;-68
2022/09/01 09:34:48;;;;;;;8.27;6.40;;;;;;;26.96;47.76;98656.41;5086638;28;20024;-68
2022/09/01 09:37:28;;;;;;;9.50;5.68;;;;;;;26.91;48.66;98672.13;5086385;28;20016;-68
2022/09/01 09:40:08;;;;;;;11.75;6.85;;;;;;;25.12;51.20;98652.66;5086247;28;20035;-68
2022/09/01 09:42:38;;;;;;;11.80;5.97;;;;;;;26.06;50.62;98661.31;5086513;28;20039;-68
2022/09/01 09:45:04;;;;;;;8.95;5.97;;;;;;;26.47;49.54;98653.38;5086476;28;20300;-68
2022/09/01 09:47:40;;;;;;;11.00;6.43;;;;;;;26.80;48.57;98656.00;5086392;28;20085;-68
2022/09/01 09:50:42;;;;;;;11.07;6.28;;;;;;;27.36;46.66;98646.59;5086117;28;20058;-68
2022/09/01 09:53:15;;;;;;;9.27;5.60;;;;;;;26.76;48.79;98665.31;5024529;28;20053;-68
2022/09/01 09:55:56;;;;;;;11.55;5.93;;;;;;;26.77;47.70;98646.28;5024415;28;20030;-68
2022/09/01 09:58:26;;;;;;;8.73;5.60;;;;;;;26.81;48.03;98652.31;5024576;28;20045;-68
2022/09/01 10:01:06;;;;;;;10.45;5.93;;;;;;;27.27;47.46;98641.97;5024376;28;20030;-68
2022/09/01 10:03:40;;;;;;;8.88;6.22;;;;;;;26.93;47.05;98641.28;5024327;28;20029;-68
2022/09/01 10:06:09;;;;;;;12.35;5.95;;;;;;;27.14;47.15;98649.41;5024263;28;20026;-68
2022/09/01 10:08:38;;;;;;;12.75;6.35;;;;;;;27.73;45.71;98646.91;5024290;28;20043;-68
2022/09/01 10:11:05;;;;;;;16.13;5.53;;;;;;;26.97;46.47;98642.78;5024019;28;20108;-68
2022/09/01 10:13:34;;;;;;;9.73;6.03;;;;;;;26.71;47.14;98636.03;5024050;28;20045;-68
2022/09/01 10:16:03;;;;;;;7.95;5.57;;;;;;;26.91;47.32;98637.00;5024029;28;20380;-68
2022/09/01 10:18:37;;;;;;;9.40;6.28;;;;;;;26.87;47.25;98630.16;5024038;28;20041;-68
2022/09/01 10:21:21;;;;;;;8.48;5.57;;;;;;;26.39;48.16;98639.66;5007615;28;20030;-68
2022/09/01 10:23:46;;;;;;;10.82;5.22;;;;;;;26.58;47.44;98637.16;5023895;28;20321;-68
2022/09/01 10:26:22;;;;;;;9.73;5.00;;;;;;;26.97;46.21;98628.38;5032977;28;20032;-68
2022/09/01 10:28:58;;;;;;;8.70;4.90;;;;;;;27.14;46.44;98631.34;5085340;28;20020;-68
2022/09/01 10:31:24;;;;;;;12.77;5.28;;;;;;;26.64;47.60;98642.06;5085271;28;20024;-68
2022/09/01 10:33:50;;;;;;;9.52;5.97;;;;;;;26.59;47.19;98623.53;5084295;28;20070;-68
2022/09/01 10:36:16;;;;;;;11.55;6.13;;;;;;;26.09;48.49;98626.00;5085135;28;20024;-68
2022/09/01 10:38:42;;;;;;;9.50;5.35;;;;;;;26.24;49.00;98630.13;5085181;28;20030;-68
2022/09/01 10:41:08;;;;;;;11.57;5.18;;;;;;;26.29;48.21;98617.13;5085104;28;20021;-68
2022/09/01 10:43:47;;;;;;;7.65;4.63;;;;;;;25.36;50.15;98640.94;5085140;28;20189;-68
2022/09/01 10:46:19;;;;;;;9.43;5.20;;;;;;;25.39;51.30;98644.28;5085282;28;20316;-68
2022/09/01 10:48:46;;;;;;;9.52;5.47;;;;;;;26.41;48.86;98626.88;5084988;28;20035;-68
2022/09/01 10:51:12;;;;;;;7.72;4.68;;;;;;;25.71;49.57;98615.59;5085170;28;20021;-68
2022/09/01 10:53:45;;;;;;;8.48;4.75;;;;;;;26.46;49.03;98624.69;5084827;28;20220;-68
2022/09/01 10:56:35;;;;;;;15.52;6.13;;;;;;;26.80;47.92;98623.59;5084869;28;20025;-68
2022/09/01 10:59:00;;;;;;;8.85;5.43;;;;;;;26.39;48.77;98628.88;5084806;28;20028;-68
2022/09/01 11:01:44;;;;;;;7.88;5.13;;;;;;;26.40;48.33;98625.19;5084878;28;20027;-68
2022/09/01 11:04:12;;;;;;;9.48;5.13;;;;;;;25.74;50.12;98619.88;5084647;28;20020;-68
2022/09/01 11:06:40;;;;;;;9.60;4.72;;;;;;;26.28;48.42;98626.19;5084590;28;20331;-68
2022/09/01 11:09:18;;;;;;;7.70;4.63;;;;;;;25.16;50.30;98634.41;5084403;28;20045;-68
2022/09/01 11:12:02;;;;;;;7.57;5.18;;;;;;;25.28;50.74;98628.91;5084567;28;20090;-68
2022/09/01 11:14:34;;;;;;;7.90;5.45;;;;;;;24.51;52.04;98612.53;5084379;28;20024;-68
2022/09/01 11:17:19;;;;;;;19.85;5.60;;;;;;;25.29;51.45;98627.97;5084471;28;20028;-68
2022/09/01 11:19:57;;;;;;;8.68;5.32;;;;;;;26.02;49.44;98624.78;5084387;28;20047;-68
2022/09/01 11:22:36;;;;;;;11.60;5.05;;;;;;;25.48;49.54;98619.31;5084384;28;20327;-68
2022/09/01 11:25:10;;;;;;;9.77;5.03;;;;;;;25.29;50.24;98630.66;5084367;28;20331;-68
2022/09/01 11:28:14;;;;;;;12.48;6.35;;;;;;;24.64;51.39;98605.28;5084292;28;20024;-68
2022/09/01 11:30:54;;;;;;;8.23;4.50;;;;;;;24.50;51.81;98602.75;5074720;28;20040;-68
2022/09/01 11:33:19;;;;;;;8.25;4.60;;;;;;;24.01;52.65;98610.06;5084225;28;20083;-68